LD HESDIN 02/05/2010 - E

Date : 02/05/2010

Place Nom Licence Catégorie Club Temps Points
1 VERCAUTEREN Antoine 16228 H14 6008HF 0:38:37 4139
2 GROSSI Kurtys 22925 H14 5907HF 0:39:34 4039
3 LOUCHART Victor 20952 H14 5906HF 0:51:52 3082
4 GERBEAUX Marie-jeanne 22417 D55 6205HF 0:57:27 2782
5 LALOUX Clément 22447 H14 5907HF 0:57:37 2774
6 BAILLIEUL Martin 22717 H14 5906HF 0:58:00 2756
7 POULAIN Gael 9172 H14 5908HF 0:58:16 2743
8 MASSIN Margot 22860 D14 5907HF 1:00:21 2648
9 ARROQUI Philippe 22651 H40 5909HF 1:02:51 2543
10 RICHARD Nicole 14245 D60 0207HF 1:04:35 2475
11 VANOVERBERGHE Philippe 22236 H45 6208HF 1:06:38 2399
12 LEICHT Theo 23015 H14 6208HF 1:06:51 2391
13 LARGILLÈRE Nicolas 18213 H14 0207HF 1:08:44 2325
14 CUVILLIERS Christophe 18661 H14 5907HF 1:10:52 2255
15 CLAVEL Matéo 22804 H14 5907HF 1:12:38 2200
16 MOULIERE M-Bernadette 2888 D65 0207HF 1:15:49 2108
17 GRESSIER Theo 22512 H14 6208HF 1:16:27 2091
18 LUDEWIG-JAMES Carol 15894 D70 5907HF 1:18:53 2026
19 DELANNOY Aurore 21271 D35 6208HF 1:20:52 1976
20 GRESSIER Francis 23437 H14 6208HF 1:26:11 1855
21 PRINS Sandrine 21461 D21 6208HF 1:41:10 1580
22 PROISY Christine 21118 D45 6008HF 1:43:17 1547
23 JUDAS Sylvaine 13635 D55 6208HF 1:44:51 1524
24 BULLIER Alisson 23427 D14 0207HF 1:47:53 1481
25 HERLEZ Robin 23489 H14 5909HF 1:55:21 1386
26 EJSMONT Martine 14164 D60 6208HF 2:04:57 1279
PROISY Jean-christophe 21117 H16 6008HF pm 0